AirNav   Bose Proflight Series 2 Wireless viation Headset
 
 288 users online  

91C Sauk-Prairie Airport
Prairie du Sac, Wisconsin, USA

GOING TO PRAIRIE DU SAC?


FAA INFORMATION EFFECTIVE 10 OCTOBER 2019

Location

FAA Identifier: 91C
Lat/Long: 43-17-52.3000N 089-45-20.9000W
43-17.871667N 089-45.348333W
43.2978611,-89.7558056
(estimated)
Elevation: 832 ft. / 253.6 m (surveyed)
Variation: 00E (1985)
From city: 2 miles W of PRAIRIE DU SAC, WI
Time zone: UTC -5 (UTC -6 during Standard Time)
Zip code: 53578

Airport Operations

Airport use: Open to the public
Activation date: 01/1963
Control tower: no
ARTCC: CHICAGO CENTER
FSS: GREEN BAY FLIGHT SERVICE STATION
NOTAMs facility: GRB (NOTAM-D service available)
Attendance: 
Wind indicator: lighted
Segmented circle: no
Lights: ACTVT MIRL RY 18/36, REIL RYS 18 & 36, & PAPI RYS 18 & 36 - CTAF.
Beacon: white-green (lighted land airport)
Operates sunset to sunrise.

Airport Communications

CTAF: 122.9
MADISON APPROACH: 135.45
MADISON DEPARTURE: 135.45
WX AWOS-3 at DLL (13 nm N): 118.325 (608-356-1071)
WX AWOS-3 at C29 (15 nm SE): 118.675 (608-833-1686)
WX AWOS-3PT at C35 (17 nm NW): 118.95 (608-768-0023)
WX ASOS at LNR (19 nm W): 119.425 (608-583-2576)
  • APCH/DEP SVC PRVDD BY CHICAGO ARTCC ON FREQS 133.3/380.35 (LONE ROCK RCAG) WHEN MADISON TWR CLSD.

Nearby radio navigation aids

VOR radial/distance  VOR name  Freq  Var
DLLr176/15.2DELLS VORTAC117.0003E
LNRr089/16.5LONE ROCK VOR/DME112.8000E
MSNr294/20.4MADISON VORTAC108.6003E

Airport Services

Fuel available: UL94
Parking: tiedowns
Airframe service: MAJOR
Powerplant service: MAJOR
Bottled oxygen: NONE
Bulk oxygen: NONE

Runway Information

Runway 18/36

Dimensions: 2936 x 60 ft. / 895 x 18 m
Surface: asphalt, in good condition
Runway edge lights: medium intensity
RUNWAY 18  RUNWAY 36
Latitude: 43-18.113167N43-17.630495N
Longitude: 089-45.365038W089-45.331887W
Elevation: 831.4 ft.820.1 ft.
Traffic pattern: leftleft
Runway heading: 177357
Markings: nonprecision, in good conditionnonprecision, in good condition
Visual slope indicator: 2-light PAPI on left (3.00 degrees glide path)2-light PAPI on left (3.00 degrees glide path)
Runway end identifier lights: yesyes
Touchdown point: yes, no lightsyes, no lights
Obstructions: 47 ft. pole, 2060 ft. from runway, 75 ft. right of centerline, 40:1 slope to clear20 ft. tree, 800 ft. from runway, 60 ft. left of centerline, 30:1 slope to clear
RY 36 + 10' TREES 30' FM THR 200' L.

Airport Ownership and Management from official FAA records

Ownership: Privately-owned
Owner: CFM INVESTMENTS
ONE QUENCH DRIVE
PRAIRIE DU SAC, WI 53578
Phone 608-643-8530
Manager: SAUK PRAIRIE AIRPORT INC.
P O BOX 7
PRAIRIE DU SAC, WI 53754
Phone 608-577-3754

Airport Operational Statistics

Aircraft based on the field: 32
Single engine airplanes: 27
Jet airplanes: 1
Ultralights: 4
    
Aircraft operations: avg 23/day *
66% local general aviation
30% transient general aviation
4% military
<1% air taxi
* for 12-month period ending 03 November 2017

Additional Remarks

ULTRALIGHT ACTVTY ON & INVOF ARPT.
MAINT VEHICLE TFC ON AND INVOF ARPT.
W RAMP AND TWY PVT, CLSD TSNT.
AVOID HOSPITAL/HELIPAD 3,000 FT SOUTHEAST OF RY 36 THLD.
RY 18 DEPS CLIMB TO 1,800 FT MSL ON RY HEADING BFR TURNING EAST/SOUTHEAST.
FOR SVCS CTC AMGR AT 608-577-3754.
TKOFS & LDGS ARE PROHIBITED ON UNPAVED SFCS.
FOR CD CTC CHICAGO ARTCC AT 630-906-8921.

Instrument Procedures

NOTE: All procedures below are presented as PDF files. If you need a reader for these files, you should download the free Adobe Reader.

NOT FOR NAVIGATION. Please procure official charts for flight.
FAA instrument procedures published for use from 10 October 2019 at 0901Z to 7 November 2019 at 0900Z.

 
IAPs - Instrument Approach Procedures
RNAV (GPS) RWY 18   download (209KB)
RNAV (GPS) RWY 36   download (227KB)
NOTE: Special Take-Off Minimums/Departure Procedures apply   download (201KB)

Other nearby airports with instrument procedures:

KDLL - Baraboo-Wisconsin Dells Regional Airport (13 nm N)
C29 - Middleton Municipal Airport - Morey Field (15 nm SE)
C35 - Reedsburg Municipal Airport (17 nm NW)
KLNR - Tri-County Regional Airport (19 nm W)
C47 - Portage Municipal Airport (20 nm NE)
 
Loc | Ops | Rwys | IFR | FBO | Links
Com | Nav | Svcs | Stats | Notes
Area around 91C (Sauk-Prairie Airport)
 
Road maps at: MapQuest Bing Google
 
Aerial photo
WARNING: Photo may not be current or correct
Aerial photo of 91C (Sauk-Prairie Airport)
Do you have a better or more recent aerial photo of Sauk-Prairie Airport that you would like to share? If so, please send us your photo.

 
Sectional chart

 
Airport distance calculator
Flying to Sauk-Prairie Airport? Find the distance to fly.

From to 91C

Sunrise and sunset
Times for 20-Oct-2019
 Local
(UTC-5)
 Zulu
(UTC)
Morning civil twilight06:5111:51
Sunrise07:2012:20
Sunset18:0823:08
Evening civil twilight18:3723:37

Current date and time
Zulu (UTC)  20-Oct-2019 07:32:04
Local (UTC-5)  20-Oct-2019 02:32:04
 
METAR
KDLL 
13nm N 
200715Z AUTO 26004KT 4SM BR OVC003 07/07 A2980 RMK AO2 T00720072
KC29 
15nm SE 
200715Z AUTO 30007KT 7SM OVC004 09/08 A2981 RMK AO1 T00940081
KC35 
17nm NW 
200715Z AUTO 00000KT 10SM OVC003 08/08 A2980 RMK AO2 T00810081 PWINO
KLNR 
19nm W 
191556Z AUTO 22004KT 10SM CLR 12/07 A2975 RMK AO2 SLP068 T01220067
KMSN 
20nm SE 
200653Z AUTO 32003KT 8SM OVC004 09/08 A2978 RMK AO2 SLP086 T00940083
TAF
KMSN 
20nm SE 
200520Z 2006/2106 30003KT 6SM BR BKN006 FM200800 00000KT 4SM BR BKN003 FM201400 00000KT P6SM BKN010 FM201500 00000KT P6SM SCT026 FM201700 VRB03KT P6SM SCT250
NOTAMs
Click for the latest NOTAMs
NOTAMs are issued by the DoD/FAA and will open in a separate window not controlled by AirNav.

 

 
 

FBO, Fuel Providers, and Aircraft Ground Support

  
 Business Name 
 
 Contact 
 
 Services / Description 
 
Fuel Prices
 
Comments
  
Blue Sky Flight LLC 608-215-9609
[email]
Aviation fuel

More info about Blue Sky Flight LLC
UL94
SS $4.49 
 Updated 17-Jul-2019
 
   2 read write
SS=Self service
Update Fuel Prices
 

Would you like to see your business listed on this page?

 If your business provides an interesting product or service to pilots, flight crews, aircraft, or users of the Sauk-Prairie Airport, you should consider listing it here.  To start the listing process, click on the button below
 
Add a business
 

Other Pages about Sauk-Prairie Airport

www.saukprairieairport.com
Page from the Wisconsin airport directory (PDF)
 
Update a link
 
Copyright © AirNav, LLC. All rights reserved. Privacy Policy  Contact